sensor_id;sensor_type;location;lat;lon;timestamp;temperature;humidity
32811;DHT22;65470;47.324;8.548;2023-03-21T00:00:43;9.30;99.90
32811;DHT22;65470;47.324;8.548;2023-03-21T00:03:09;9.30;99.90
32811;DHT22;65470;47.324;8.548;2023-03-21T00:05:39;9.20;99.90
32811;DHT22;65470;47.324;8.548;2023-03-21T00:08:05;9.20;99.90
32811;DHT22;65470;47.324;8.548;2023-03-21T00:10:30;9.20;99.90
32811;DHT22;65470;47.324;8.548;2023-03-21T00:12:56;9.10;99.90
32811;DHT22;65470;47.324;8.548;2023-03-21T00:15:23;9.10;99.90
32811;DHT22;65470;47.324;8.548;2023-03-21T00:17:52;9.00;99.90
32811;DHT22;65470;47.324;8.548;2023-03-21T00:20:18;8.90;99.90
32811;DHT22;65470;47.324;8.548;2023-03-21T00:22:45;8.80;99.90
32811;DHT22;65470;47.324;8.548;2023-03-21T00:25:10;8.70;99.90
32811;DHT22;65470;47.324;8.548;2023-03-21T00:27:36;8.70;99.90
32811;DHT22;65470;47.324;8.548;2023-03-21T00:30:03;8.70;99.90
32811;DHT22;65470;47.324;8.548;2023-03-21T00:32:29;8.60;99.90
32811;DHT22;65470;47.324;8.548;2023-03-21T00:34:54;8.60;99.90
32811;DHT22;65470;47.324;8.548;2023-03-21T00:37:20;8.60;99.90
32811;DHT22;65470;47.324;8.548;2023-03-21T00:39:47;8.60;99.90
32811;DHT22;65470;47.324;8.548;2023-03-21T00:42:17;8.60;99.90
32811;DHT22;65470;47.324;8.548;2023-03-21T00:44:43;8.60;99.90
32811;DHT22;65470;47.324;8.548;2023-03-21T00:47:12;8.60;99.90
32811;DHT22;65470;47.324;8.548;2023-03-21T00:49:38;8.60;99.90
32811;DHT22;65470;47.324;8.548;2023-03-21T00:52:05;8.60;99.90
32811;DHT22;65470;47.324;8.548;2023-03-21T00:54:35;8.60;99.90
32811;DHT22;65470;47.324;8.548;2023-03-21T00:57:02;8.60;99.90
32811;DHT22;65470;47.324;8.548;2023-03-21T00:59:28;8.60;99.90
32811;DHT22;65470;47.324;8.548;2023-03-21T01:01:54;8.70;99.90
32811;DHT22;65470;47.324;8.548;2023-03-21T01:04:20;8.70;99.90
32811;DHT22;65470;47.324;8.548;2023-03-21T01:06:52;8.70;99.90
32811;DHT22;65470;47.324;8.548;2023-03-21T01:09:21;8.60;99.90
32811;DHT22;65470;47.324;8.548;2023-03-21T01:11:48;8.60;99.90
32811;DHT22;65470;47.324;8.548;2023-03-21T01:14:16;8.60;99.90
32811;DHT22;65470;47.324;8.548;2023-03-21T01:16:42;8.50;99.90
32811;DHT22;65470;47.324;8.548;2023-03-21T01:19:11;8.40;99.90
32811;DHT22;65470;47.324;8.548;2023-03-21T01:21:38;8.40;99.90
32811;DHT22;65470;47.324;8.548;2023-03-21T01:24:04;8.40;99.90
32811;DHT22;65470;47.324;8.548;2023-03-21T01:26:30;8.30;99.90
32811;DHT22;65470;47.324;8.548;2023-03-21T01:28:56;8.30;99.90
32811;DHT22;65470;47.324;8.548;2023-03-21T01:31:21;8.20;99.90
32811;DHT22;65470;47.324;8.548;2023-03-21T01:33:47;8.20;99.90
32811;DHT22;65470;47.324;8.548;2023-03-21T01:36:21;8.20;99.90
32811;DHT22;65470;47.324;8.548;2023-03-21T01:38:47;8.10;99.90
32811;DHT22;65470;47.324;8.548;2023-03-21T01:41:34;8.10;99.90
32811;DHT22;65470;47.324;8.548;2023-03-21T01:44:01;8.20;99.90
32811;DHT22;65470;47.324;8.548;2023-03-21T01:49:15;8.10;99.90
32811;DHT22;65470;47.324;8.548;2023-03-21T01:51:49;8.10;99.90
32811;DHT22;65470;47.324;8.548;2023-03-21T01:54:20;8.10;99.90
32811;DHT22;65470;47.324;8.548;2023-03-21T01:56:50;8.10;99.90
32811;DHT22;65470;47.324;8.548;2023-03-21T02:02:14;8.10;99.90
32811;DHT22;65470;47.324;8.548;2023-03-21T02:04:42;8.00;99.90
32811;DHT22;65470;47.324;8.548;2023-03-21T02:07:32;7.90;99.90
32811;DHT22;65470;47.324;8.548;2023-03-21T02:10:04;7.90;99.90
32811;DHT22;65470;47.324;8.548;2023-03-21T02:12:32;7.80;99.90
32811;DHT22;65470;47.324;8.548;2023-03-21T02:14:58;7.90;99.90
32811;DHT22;65470;47.324;8.548;2023-03-21T02:26:20;7.60;99.90
32811;DHT22;65470;47.324;8.548;2023-03-21T02:28:58;7.60;99.90
32811;DHT22;65470;47.324;8.548;2023-03-21T02:32:00;7.60;99.90
32811;DHT22;65470;47.324;8.548;2023-03-21T02:45:43;7.50;99.90
32811;DHT22;65470;47.324;8.548;2023-03-21T02:48:14;7.50;99.90
32811;DHT22;65470;47.324;8.548;2023-03-21T02:50:49;7.40;99.90
32811;DHT22;65470;47.324;8.548;2023-03-21T02:53:18;7.30;99.90
32811;DHT22;65470;47.324;8.548;2023-03-21T02:55:46;7.30;99.90
32811;DHT22;65470;47.324;8.548;2023-03-21T02:58:15;7.30;99.90
32811;DHT22;65470;47.324;8.548;2023-03-21T03:04:15;7.40;99.90
32811;DHT22;65470;47.324;8.548;2023-03-21T03:07:06;7.40;99.90
32811;DHT22;65470;47.324;8.548;2023-03-21T03:12:37;7.50;99.90
32811;DHT22;65470;47.324;8.548;2023-03-21T03:17:49;7.50;99.90
32811;DHT22;65470;47.324;8.548;2023-03-21T03:20:35;7.50;99.90
32811;DHT22;65470;47.324;8.548;2023-03-21T03:25:56;7.30;99.90
32811;DHT22;65470;47.324;8.548;2023-03-21T03:28:26;7.30;99.90
32811;DHT22;65470;47.324;8.548;2023-03-21T03:30:55;7.30;99.90
32811;DHT22;65470;47.324;8.548;2023-03-21T03:33:23;7.30;99.90
32811;DHT22;65470;47.324;8.548;2023-03-21T03:35:50;7.20;99.90
32811;DHT22;65470;47.324;8.548;2023-03-21T03:38:19;7.20;99.90
32811;DHT22;65470;47.324;8.548;2023-03-21T03:40:50;7.10;99.90
32811;DHT22;65470;47.324;8.548;2023-03-21T03:43:22;7.10;99.90
32811;DHT22;65470;47.324;8.548;2023-03-21T03:45:56;7.10;99.90
32811;DHT22;65470;47.324;8.548;2023-03-21T03:48:26;7.10;99.90
32811;DHT22;65470;47.324;8.548;2023-03-21T03:50:56;7.10;99.90
32811;DHT22;65470;47.324;8.548;2023-03-21T03:53:35;7.00;99.90
32811;DHT22;65470;47.324;8.548;2023-03-21T03:56:03;7.10;99.90
32811;DHT22;65470;47.324;8.548;2023-03-21T03:58:29;7.10;99.90
32811;DHT22;65470;47.324;8.548;2023-03-21T04:00:56;7.00;99.90
32811;DHT22;65470;47.324;8.548;2023-03-21T04:03:22;7.00;99.90
32811;DHT22;65470;47.324;8.548;2023-03-21T04:05:48;7.00;99.90
32811;DHT22;65470;47.324;8.548;2023-03-21T04:08:15;7.00;99.90
32811;DHT22;65470;47.324;8.548;2023-03-21T04:10:42;6.90;99.90
32811;DHT22;65470;47.324;8.548;2023-03-21T04:13:08;6.90;99.90
32811;DHT22;65470;47.324;8.548;2023-03-21T04:15:34;6.90;99.90
32811;DHT22;65470;47.324;8.548;2023-03-21T04:18:00;6.90;99.90
32811;DHT22;65470;47.324;8.548;2023-03-21T04:20:26;6.90;99.90
32811;DHT22;65470;47.324;8.548;2023-03-21T04:22:52;6.90;99.90
32811;DHT22;65470;47.324;8.548;2023-03-21T04:25:19;6.80;99.90
32811;DHT22;65470;47.324;8.548;2023-03-21T04:27:44;6.80;99.90
32811;DHT22;65470;47.324;8.548;2023-03-21T04:30:11;6.80;99.90
32811;DHT22;65470;47.324;8.548;2023-03-21T04:32:37;6.80;99.90
32811;DHT22;65470;47.324;8.548;2023-03-21T04:35:08;6.80;99.90
32811;DHT22;65470;47.324;8.548;2023-03-21T04:37:35;6.70;99.90
32811;DHT22;65470;47.324;8.548;2023-03-21T04:40:02;6.70;99.90
32811;DHT22;65470;47.324;8.548;2023-03-21T04:42:33;6.70;99.90
32811;DHT22;65470;47.324;8.548;2023-03-21T04:44:59;6.70;99.90
32811;DHT22;65470;47.324;8.548;2023-03-21T04:47:25;6.70;99.90
32811;DHT22;65470;47.324;8.548;2023-03-21T04:49:51;6.70;99.90
32811;DHT22;65470;47.324;8.548;2023-03-21T04:52:18;6.70;99.90
32811;DHT22;65470;47.324;8.548;2023-03-21T04:54:44;6.70;99.90
32811;DHT22;65470;47.324;8.548;2023-03-21T04:57:10;6.80;99.90
32811;DHT22;65470;47.324;8.548;2023-03-21T04:59:36;6.80;99.90
32811;DHT22;65470;47.324;8.548;2023-03-21T05:02:01;6.80;99.90
32811;DHT22;65470;47.324;8.548;2023-03-21T05:04:28;6.80;99.90
32811;DHT22;65470;47.324;8.548;2023-03-21T05:06:54;6.80;99.90
32811;DHT22;65470;47.324;8.548;2023-03-21T05:09:21;6.80;99.90
32811;DHT22;65470;47.324;8.548;2023-03-21T05:11:47;6.80;99.90
32811;DHT22;65470;47.324;8.548;2023-03-21T05:14:17;6.80;99.90
32811;DHT22;65470;47.324;8.548;2023-03-21T05:16:44;6.80;99.90
32811;DHT22;65470;47.324;8.548;2023-03-21T05:19:13;6.80;99.90
32811;DHT22;65470;47.324;8.548;2023-03-21T05:21:40;6.70;99.90
32811;DHT22;65470;47.324;8.548;2023-03-21T05:24:15;6.70;99.90
32811;DHT22;65470;47.324;8.548;2023-03-21T05:26:42;6.60;99.90
32811;DHT22;65470;47.324;8.548;2023-03-21T05:29:08;6.60;99.90
32811;DHT22;65470;47.324;8.548;2023-03-21T05:31:34;6.60;99.90
32811;DHT22;65470;47.324;8.548;2023-03-21T05:34:01;6.60;99.90
32811;DHT22;65470;47.324;8.548;2023-03-21T05:36:27;6.60;99.90
32811;DHT22;65470;47.324;8.548;2023-03-21T05:38:52;6.60;99.90
32811;DHT22;65470;47.324;8.548;2023-03-21T05:41:18;6.70;99.90
32811;DHT22;65470;47.324;8.548;2023-03-21T05:43:45;6.70;99.90
32811;DHT22;65470;47.324;8.548;2023-03-21T05:46:11;6.80;99.90
32811;DHT22;65470;47.324;8.548;2023-03-21T05:48:37;6.90;99.90
32811;DHT22;65470;47.324;8.548;2023-03-21T05:51:03;7.10;99.90
32811;DHT22;65470;47.324;8.548;2023-03-21T05:53:29;7.60;99.90
32811;DHT22;65470;47.324;8.548;2023-03-21T05:55:55;8.30;99.90
32811;DHT22;65470;47.324;8.548;2023-03-21T05:58:20;9.10;99.90
32811;DHT22;65470;47.324;8.548;2023-03-21T06:00:46;10.00;99.90
32811;DHT22;65470;47.324;8.548;2023-03-21T06:03:11;10.60;99.90
32811;DHT22;65470;47.324;8.548;2023-03-21T06:05:40;11.20;99.90
32811;DHT22;65470;47.324;8.548;2023-03-21T06:08:05;11.50;99.90
32811;DHT22;65470;47.324;8.548;2023-03-21T06:10:31;11.20;99.90
32811;DHT22;65470;47.324;8.548;2023-03-21T06:12:56;11.20;99.90
32811;DHT22;65470;47.324;8.548;2023-03-21T06:15:22;11.40;99.90
32811;DHT22;65470;47.324;8.548;2023-03-21T06:17:48;11.50;99.90
32811;DHT22;65470;47.324;8.548;2023-03-21T06:20:13;11.50;99.90
32811;DHT22;65470;47.324;8.548;2023-03-21T06:22:39;11.80;99.90
32811;DHT22;65470;47.324;8.548;2023-03-21T06:25:06;12.30;99.90
32811;DHT22;65470;47.324;8.548;2023-03-21T06:27:32;12.70;99.90
32811;DHT22;65470;47.324;8.548;2023-03-21T06:29:58;13.20;99.90
32811;DHT22;65470;47.324;8.548;2023-03-21T06:32:24;13.40;99.90
32811;DHT22;65470;47.324;8.548;2023-03-21T06:34:50;14.30;99.90
32811;DHT22;65470;47.324;8.548;2023-03-21T06:37:16;14.90;99.90
32811;DHT22;65470;47.324;8.548;2023-03-21T06:39:42;15.70;99.90
32811;DHT22;65470;47.324;8.548;2023-03-21T06:42:07;15.80;99.90
32811;DHT22;65470;47.324;8.548;2023-03-21T06:44:33;15.90;99.90
32811;DHT22;65470;47.324;8.548;2023-03-21T06:46:59;16.40;99.40
32811;DHT22;65470;47.324;8.548;2023-03-21T06:49:25;16.80;96.50
32811;DHT22;65470;47.324;8.548;2023-03-21T06:51:51;16.60;94.80
32811;DHT22;65470;47.324;8.548;2023-03-21T06:54:18;16.60;95.10
32811;DHT22;65470;47.324;8.548;2023-03-21T06:56:44;17.40;93.70
32811;DHT22;65470;47.324;8.548;2023-03-21T06:59:10;17.80;92.50
32811;DHT22;65470;47.324;8.548;2023-03-21T07:01:36;18.40;90.00
32811;DHT22;65470;47.324;8.548;2023-03-21T07:04:01;18.50;87.70
32811;DHT22;65470;47.324;8.548;2023-03-21T07:06:29;19.00;84.20
32811;DHT22;65470;47.324;8.548;2023-03-21T07:08:55;19.10;81.90
32811;DHT22;65470;47.324;8.548;2023-03-21T07:11:21;19.50;82.80
32811;DHT22;65470;47.324;8.548;2023-03-21T07:13:47;20.10;77.90
32811;DHT22;65470;47.324;8.548;2023-03-21T07:16:14;19.70;77.10
32811;DHT22;65470;47.324;8.548;2023-03-21T07:18:41;20.30;73.80
32811;DHT22;65470;47.324;8.548;2023-03-21T07:21:07;20.60;73.30
32811;DHT22;65470;47.324;8.548;2023-03-21T07:23:33;19.90;73.50
32811;DHT22;65470;47.324;8.548;2023-03-21T07:25:59;19.50;73.20
32811;DHT22;65470;47.324;8.548;2023-03-21T07:28:26;19.30;75.50
32811;DHT22;65470;47.324;8.548;2023-03-21T07:30:57;19.50;76.50
32811;DHT22;65470;47.324;8.548;2023-03-21T07:33:23;20.20;72.70
32811;DHT22;65470;47.324;8.548;2023-03-21T07:35:50;21.10;70.00
32811;DHT22;65470;47.324;8.548;2023-03-21T07:38:16;20.30;70.00
32811;DHT22;65470;47.324;8.548;2023-03-21T07:40:43;20.10;72.00
32811;DHT22;65470;47.324;8.548;2023-03-21T07:43:08;20.30;72.00
32811;DHT22;65470;47.324;8.548;2023-03-21T07:45:34;20.70;69.90
32811;DHT22;65470;47.324;8.548;2023-03-21T07:48:00;20.60;69.80
32811;DHT22;65470;47.324;8.548;2023-03-21T07:50:26;20.80;70.30
32811;DHT22;65470;47.324;8.548;2023-03-21T07:52:51;21.00;70.50
32811;DHT22;65470;47.324;8.548;2023-03-21T07:55:18;21.10;68.00
32811;DHT22;65470;47.324;8.548;2023-03-21T07:57:44;21.10;65.80
32811;DHT22;65470;47.324;8.548;2023-03-21T08:00:10;20.20;67.10
32811;DHT22;65470;47.324;8.548;2023-03-21T08:02:37;20.30;70.10
32811;DHT22;65470;47.324;8.548;2023-03-21T08:05:02;20.90;69.50
32811;DHT22;65470;47.324;8.548;2023-03-21T08:07:28;22.10;66.30
32811;DHT22;65470;47.324;8.548;2023-03-21T08:09:55;22.10;64.50
32811;DHT22;65470;47.324;8.548;2023-03-21T08:12:20;22.60;63.00
32811;DHT22;65470;47.324;8.548;2023-03-21T08:14:46;22.80;62.60
32811;DHT22;65470;47.324;8.548;2023-03-21T08:17:12;22.60;62.70
32811;DHT22;65470;47.324;8.548;2023-03-21T08:19:37;23.30;60.50
32811;DHT22;65470;47.324;8.548;2023-03-21T08:22:03;23.70;59.70
32811;DHT22;65470;47.324;8.548;2023-03-21T08:24:31;24.10;58.70
32811;DHT22;65470;47.324;8.548;2023-03-21T08:26:59;24.50;58.00
32811;DHT22;65470;47.324;8.548;2023-03-21T08:29:25;24.30;58.30
32811;DHT22;65470;47.324;8.548;2023-03-21T08:31:51;24.00;57.50
32811;DHT22;65470;47.324;8.548;2023-03-21T08:34:17;23.70;58.80
32811;DHT22;65470;47.324;8.548;2023-03-21T08:36:44;24.10;58.00
32811;DHT22;65470;47.324;8.548;2023-03-21T08:39:09;24.10;57.70
32811;DHT22;65470;47.324;8.548;2023-03-21T08:41:36;24.20;57.30
32811;DHT22;65470;47.324;8.548;2023-03-21T08:44:03;24.80;57.10
32811;DHT22;65470;47.324;8.548;2023-03-21T08:46:29;25.20;55.40
32811;DHT22;65470;47.324;8.548;2023-03-21T08:48:55;24.90;55.70
32811;DHT22;65470;47.324;8.548;2023-03-21T08:51:20;25.00;55.90
32811;DHT22;65470;47.324;8.548;2023-03-21T08:53:46;25.30;55.60
32811;DHT22;65470;47.324;8.548;2023-03-21T08:56:14;24.60;55.80
32811;DHT22;65470;47.324;8.548;2023-03-21T08:58:39;24.80;55.60
32811;DHT22;65470;47.324;8.548;2023-03-21T09:01:05;24.70;55.20
32811;DHT22;65470;47.324;8.548;2023-03-21T09:03:36;24.50;54.90
32811;DHT22;65470;47.324;8.548;2023-03-21T09:06:03;24.10;55.80
32811;DHT22;65470;47.324;8.548;2023-03-21T09:08:29;23.70;56.80
32811;DHT22;65470;47.324;8.548;2023-03-21T09:10:55;22.90;57.50
32811;DHT22;65470;47.324;8.548;2023-03-21T09:13:22;22.70;57.70
32811;DHT22;65470;47.324;8.548;2023-03-21T09:15:48;22.40;58.80
32811;DHT22;65470;47.324;8.548;2023-03-21T09:18:14;22.50;58.30
32811;DHT22;65470;47.324;8.548;2023-03-21T09:20:45;21.80;59.60
32811;DHT22;65470;47.324;8.548;2023-03-21T09:23:13;21.50;60.80
32811;DHT22;65470;47.324;8.548;2023-03-21T09:25:44;21.00;62.60
32811;DHT22;65470;47.324;8.548;2023-03-21T09:28:10;20.60;63.30
32811;DHT22;65470;47.324;8.548;2023-03-21T09:30:37;20.00;66.10
32811;DHT22;65470;47.324;8.548;2023-03-21T09:33:04;20.10;65.10
32811;DHT22;65470;47.324;8.548;2023-03-21T09:35:43;19.80;65.60
32811;DHT22;65470;47.324;8.548;2023-03-21T09:38:09;19.50;66.90
32811;DHT22;65470;47.324;8.548;2023-03-21T09:40:44;19.30;66.70
32811;DHT22;65470;47.324;8.548;2023-03-21T09:48:49;19.00;68.50
32811;DHT22;65470;47.324;8.548;2023-03-21T09:51:19;18.80;69.70
32811;DHT22;65470;47.324;8.548;2023-03-21T09:53:47;18.60;69.70
32811;DHT22;65470;47.324;8.548;2023-03-21T09:56:14;18.80;69.30
32811;DHT22;65470;47.324;8.548;2023-03-21T09:58:47;18.60;70.50
32811;DHT22;65470;47.324;8.548;2023-03-21T10:04:12;18.60;70.80
32811;DHT22;65470;47.324;8.548;2023-03-21T10:06:41;18.50;70.80
32811;DHT22;65470;47.324;8.548;2023-03-21T10:09:19;18.70;70.10
32811;DHT22;65470;47.324;8.548;2023-03-21T10:12:02;18.30;71.70
32811;DHT22;65470;47.324;8.548;2023-03-21T10:17:01;18.90;69.90
32811;DHT22;65470;47.324;8.548;2023-03-21T10:19:30;19.10;69.00
32811;DHT22;65470;47.324;8.548;2023-03-21T10:21:55;19.00;68.70
32811;DHT22;65470;47.324;8.548;2023-03-21T10:24:24;18.80;70.00
32811;DHT22;65470;47.324;8.548;2023-03-21T10:26:52;18.60;70.10
32811;DHT22;65470;47.324;8.548;2023-03-21T10:29:21;18.50;74.00
32811;DHT22;65470;47.324;8.548;2023-03-21T10:31:49;18.90;70.90
32811;DHT22;65470;47.324;8.548;2023-03-21T10:34:49;19.10;69.60
32811;DHT22;65470;47.324;8.548;2023-03-21T10:37:13;19.30;70.20
32811;DHT22;65470;47.324;8.548;2023-03-21T10:39:44;19.60;69.00
32811;DHT22;65470;47.324;8.548;2023-03-21T10:42:18;20.00;67.60
32811;DHT22;65470;47.324;8.548;2023-03-21T10:44:47;19.80;70.00
32811;DHT22;65470;47.324;8.548;2023-03-21T10:47:19;19.90;69.10
32811;DHT22;65470;47.324;8.548;2023-03-21T10:49:46;20.10;68.70
32811;DHT22;65470;47.324;8.548;2023-03-21T10:52:16;20.80;66.20
32811;DHT22;65470;47.324;8.548;2023-03-21T10:54:42;21.30;65.30
32811;DHT22;65470;47.324;8.548;2023-03-21T10:57:15;21.10;65.80
32811;DHT22;65470;47.324;8.548;2023-03-21T10:59:52;21.60;64.90
32811;DHT22;65470;47.324;8.548;2023-03-21T11:02:30;22.10;63.10
32811;DHT22;65470;47.324;8.548;2023-03-21T11:05:07;22.50;61.80
32811;DHT22;65470;47.324;8.548;2023-03-21T11:07:34;22.80;61.10
32811;DHT22;65470;47.324;8.548;2023-03-21T11:10:15;23.30;59.00
32811;DHT22;65470;47.324;8.548;2023-03-21T11:12:46;23.50;59.10
32811;DHT22;65470;47.324;8.548;2023-03-21T11:15:37;24.30;57.50
32811;DHT22;65470;47.324;8.548;2023-03-21T11:18:24;24.40;56.90
32811;DHT22;65470;47.324;8.548;2023-03-21T11:20:57;24.40;56.90
32811;DHT22;65470;47.324;8.548;2023-03-21T11:23:29;24.50;57.00
32811;DHT22;65470;47.324;8.548;2023-03-21T11:25:58;25.00;55.70
32811;DHT22;65470;47.324;8.548;2023-03-21T11:28:32;25.70;54.30
32811;DHT22;65470;47.324;8.548;2023-03-21T11:31:00;25.50;53.80
32811;DHT22;65470;47.324;8.548;2023-03-21T11:33:49;24.90;54.70
32811;DHT22;65470;47.324;8.548;2023-03-21T11:38:52;25.00;54.90
32811;DHT22;65470;47.324;8.548;2023-03-21T11:41:29;25.80;52.80
32811;DHT22;65470;47.324;8.548;2023-03-21T11:43:56;25.70;53.80
32811;DHT22;65470;47.324;8.548;2023-03-21T11:46:24;26.10;53.00
32811;DHT22;65470;47.324;8.548;2023-03-21T11:48:51;26.80;51.90
32811;DHT22;65470;47.324;8.548;2023-03-21T11:56:35;26.80;51.90
32811;DHT22;65470;47.324;8.548;2023-03-21T11:59:29;27.60;50.60
32811;DHT22;65470;47.324;8.548;2023-03-21T12:05:06;28.20;48.20
32811;DHT22;65470;47.324;8.548;2023-03-21T12:07:57;27.80;49.00
32811;DHT22;65470;47.324;8.548;2023-03-21T12:15:36;27.30;48.10
32811;DHT22;65470;47.324;8.548;2023-03-21T12:21:05;26.90;49.50
32811;DHT22;65470;47.324;8.548;2023-03-21T12:26:35;27.50;49.10
32811;DHT22;65470;47.324;8.548;2023-03-21T12:31:58;26.70;49.40
32811;DHT22;65470;47.324;8.548;2023-03-21T12:37:28;26.90;49.40
32811;DHT22;65470;47.324;8.548;2023-03-21T12:40:08;26.20;49.60
32811;DHT22;65470;47.324;8.548;2023-03-21T12:45:41;25.90;50.70
32811;DHT22;65470;47.324;8.548;2023-03-21T12:48:20;25.90;51.00
32811;DHT22;65470;47.324;8.548;2023-03-21T12:50:48;25.80;51.40
32811;DHT22;65470;47.324;8.548;2023-03-21T12:53:36;25.60;51.70
32811;DHT22;65470;47.324;8.548;2023-03-21T12:56:09;25.80;52.00
32811;DHT22;65470;47.324;8.548;2023-03-21T12:58:53;25.90;51.50
32811;DHT22;65470;47.324;8.548;2023-03-21T13:01:22;26.10;50.40
32811;DHT22;65470;47.324;8.548;2023-03-21T13:06:45;25.60;51.90
32811;DHT22;65470;47.324;8.548;2023-03-21T13:09:16;25.90;51.00
32811;DHT22;65470;47.324;8.548;2023-03-21T13:11:44;26.10;50.60
32811;DHT22;65470;47.324;8.548;2023-03-21T13:14:19;26.40;50.00
32811;DHT22;65470;47.324;8.548;2023-03-21T13:16:52;26.10;51.40
32811;DHT22;65470;47.324;8.548;2023-03-21T13:20:00;25.90;51.30
32811;DHT22;65470;47.324;8.548;2023-03-21T13:22:31;25.80;51.50
32811;DHT22;65470;47.324;8.548;2023-03-21T13:25:02;25.10;51.90
32811;DHT22;65470;47.324;8.548;2023-03-21T13:27:33;25.20;52.30
32811;DHT22;65470;47.324;8.548;2023-03-21T13:30:02;25.10;52.80
32811;DHT22;65470;47.324;8.548;2023-03-21T13:32:38;24.60;55.10
32811;DHT22;65470;47.324;8.548;2023-03-21T13:35:20;24.40;55.00
32811;DHT22;65470;47.324;8.548;2023-03-21T13:38:01;24.80;54.10
32811;DHT22;65470;47.324;8.548;2023-03-21T13:40:48;25.40;52.80
32811;DHT22;65470;47.324;8.548;2023-03-21T13:43:33;25.50;52.40
32811;DHT22;65470;47.324;8.548;2023-03-21T13:48:53;24.80;54.40
32811;DHT22;65470;47.324;8.548;2023-03-21T13:54:17;24.80;52.90
32811;DHT22;65470;47.324;8.548;2023-03-21T13:59:10;24.90;53.20
32811;DHT22;65470;47.324;8.548;2023-03-21T14:01:41;24.80;52.70
32811;DHT22;65470;47.324;8.548;2023-03-21T14:04:25;24.50;53.40
32811;DHT22;65470;47.324;8.548;2023-03-21T14:07:00;24.00;54.10
32811;DHT22;65470;47.324;8.548;2023-03-21T14:09:37;23.70;54.00
32811;DHT22;65470;47.324;8.548;2023-03-21T14:12:07;23.30;55.30
32811;DHT22;65470;47.324;8.548;2023-03-21T14:14:59;23.00;55.90
32811;DHT22;65470;47.324;8.548;2023-03-21T14:17:31;22.60;56.70
32811;DHT22;65470;47.324;8.548;2023-03-21T14:20:23;22.00;57.90
32811;DHT22;65470;47.324;8.548;2023-03-21T14:22:49;21.60;59.10
32811;DHT22;65470;47.324;8.548;2023-03-21T14:25:17;21.30;60.10
32811;DHT22;65470;47.324;8.548;2023-03-21T14:27:49;21.10;59.60
32811;DHT22;65470;47.324;8.548;2023-03-21T14:30:27;20.90;61.30
32811;DHT22;65470;47.324;8.548;2023-03-21T14:32:59;20.70;62.00
32811;DHT22;65470;47.324;8.548;2023-03-21T14:35:30;20.60;64.20
32811;DHT22;65470;47.324;8.548;2023-03-21T14:38:03;20.50;62.20
32811;DHT22;65470;47.324;8.548;2023-03-21T14:40:29;20.30;62.40
32811;DHT22;65470;47.324;8.548;2023-03-21T14:42:55;20.20;62.40
32811;DHT22;65470;47.324;8.548;2023-03-21T14:45:26;20.00;63.60
32811;DHT22;65470;47.324;8.548;2023-03-21T14:50:33;20.00;63.70
32811;DHT22;65470;47.324;8.548;2023-03-21T14:53:00;20.00;63.50
32811;DHT22;65470;47.324;8.548;2023-03-21T14:55:26;20.10;65.00
32811;DHT22;65470;47.324;8.548;2023-03-21T14:57:53;20.20;66.00
32811;DHT22;65470;47.324;8.548;2023-03-21T15:00:24;20.40;66.50
32811;DHT22;65470;47.324;8.548;2023-03-21T15:02:51;20.60;65.20
32811;DHT22;65470;47.324;8.548;2023-03-21T15:05:26;20.80;62.30
32811;DHT22;65470;47.324;8.548;2023-03-21T15:10:33;20.80;62.90
32811;DHT22;65470;47.324;8.548;2023-03-21T15:13:01;20.80;62.10
32811;DHT22;65470;47.324;8.548;2023-03-21T15:15:28;20.80;60.70
32811;DHT22;65470;47.324;8.548;2023-03-21T15:17:57;20.80;61.70
32811;DHT22;65470;47.324;8.548;2023-03-21T15:20:28;20.90;60.80
32811;DHT22;65470;47.324;8.548;2023-03-21T15:22:58;20.70;60.60
32811;DHT22;65470;47.324;8.548;2023-03-21T15:25:29;20.50;61.10
32811;DHT22;65470;47.324;8.548;2023-03-21T15:27:57;20.40;62.40
32811;DHT22;65470;47.324;8.548;2023-03-21T15:30:28;20.50;62.40
32811;DHT22;65470;47.324;8.548;2023-03-21T15:32:55;20.40;62.20
32811;DHT22;65470;47.324;8.548;2023-03-21T15:35:26;20.40;62.40
32811;DHT22;65470;47.324;8.548;2023-03-21T15:37:58;20.40;62.30
32811;DHT22;65470;47.324;8.548;2023-03-21T15:40:27;20.30;63.40
32811;DHT22;65470;47.324;8.548;2023-03-21T15:43:13;20.20;63.10
32811;DHT22;65470;47.324;8.548;2023-03-21T15:45:51;20.00;63.60
32811;DHT22;65470;47.324;8.548;2023-03-21T15:48:24;19.50;65.30
32811;DHT22;65470;47.324;8.548;2023-03-21T15:51:01;19.40;66.10
32811;DHT22;65470;47.324;8.548;2023-03-21T15:53:32;19.40;66.10
32811;DHT22;65470;47.324;8.548;2023-03-21T15:55:59;19.50;66.20
32811;DHT22;65470;47.324;8.548;2023-03-21T15:58:41;19.40;67.00
32811;DHT22;65470;47.324;8.548;2023-03-21T16:01:14;19.20;67.70
32811;DHT22;65470;47.324;8.548;2023-03-21T16:04:00;19.10;67.80
32811;DHT22;65470;47.324;8.548;2023-03-21T16:06:31;19.00;68.60
32811;DHT22;65470;47.324;8.548;2023-03-21T16:09:17;18.80;69.00
32811;DHT22;65470;47.324;8.548;2023-03-21T16:11:49;18.70;69.20
32811;DHT22;65470;47.324;8.548;2023-03-21T16:14:15;18.60;69.90
32811;DHT22;65470;47.324;8.548;2023-03-21T16:16:41;18.40;69.60
32811;DHT22;65470;47.324;8.548;2023-03-21T16:19:07;18.40;69.70
32811;DHT22;65470;47.324;8.548;2023-03-21T16:21:34;18.00;70.20
32811;DHT22;65470;47.324;8.548;2023-03-21T16:24:04;17.90;70.90
32811;DHT22;65470;47.324;8.548;2023-03-21T16:26:33;17.70;71.40
32811;DHT22;65470;47.324;8.548;2023-03-21T16:29:00;17.50;72.20
32811;DHT22;65470;47.324;8.548;2023-03-21T16:31:30;17.40;71.80
32811;DHT22;65470;47.324;8.548;2023-03-21T16:33:56;17.40;72.80
32811;DHT22;65470;47.324;8.548;2023-03-21T16:36:24;17.40;72.60
32811;DHT22;65470;47.324;8.548;2023-03-21T16:38:51;17.40;73.10
32811;DHT22;65470;47.324;8.548;2023-03-21T16:41:17;17.20;73.10
32811;DHT22;65470;47.324;8.548;2023-03-21T16:43:44;17.20;73.70
32811;DHT22;65470;47.324;8.548;2023-03-21T16:46:17;17.10;74.20
32811;DHT22;65470;47.324;8.548;2023-03-21T16:48:44;17.10;74.90
32811;DHT22;65470;47.324;8.548;2023-03-21T16:51:18;17.20;75.00
32811;DHT22;65470;47.324;8.548;2023-03-21T16:53:45;17.10;75.20
32811;DHT22;65470;47.324;8.548;2023-03-21T16:56:20;17.10;76.20
32811;DHT22;65470;47.324;8.548;2023-03-21T16:58:47;17.00;76.50
32811;DHT22;65470;47.324;8.548;2023-03-21T17:01:17;17.00;77.00
32811;DHT22;65470;47.324;8.548;2023-03-21T17:03:44;17.00;77.00
32811;DHT22;65470;47.324;8.548;2023-03-21T17:06:13;16.90;78.30
32811;DHT22;65470;47.324;8.548;2023-03-21T17:08:38;16.80;80.20
32811;DHT22;65470;47.324;8.548;2023-03-21T17:11:04;16.70;79.90
32811;DHT22;65470;47.324;8.548;2023-03-21T17:13:31;16.50;81.60
32811;DHT22;65470;47.324;8.548;2023-03-21T17:15:56;16.40;81.40
32811;DHT22;65470;47.324;8.548;2023-03-21T17:18:22;16.40;80.60
32811;DHT22;65470;47.324;8.548;2023-03-21T17:20:47;16.30;80.90
32811;DHT22;65470;47.324;8.548;2023-03-21T17:23:13;16.30;80.90
32811;DHT22;65470;47.324;8.548;2023-03-21T17:25:39;16.30;81.30